sensor_id;sensor_type;location;lat;lon;timestamp;P1;durP1;ratioP1;P2;durP2;ratioP2
4206;SDS011;2117;47.972;7.830;2022-09-06T03:33:15;13.00;;;4.90;;
4206;SDS011;2117;47.972;7.830;2022-09-06T03:35:52;10.33;;;5.40;;
4206;SDS011;2117;47.972;7.830;2022-09-06T03:38:23;9.13;;;4.67;;
4206;SDS011;2117;47.972;7.830;2022-09-06T03:40:49;11.90;;;5.70;;
4206;SDS011;2117;47.972;7.830;2022-09-06T03:43:16;8.93;;;4.83;;
4206;SDS011;2117;47.972;7.830;2022-09-06T03:45:44;7.20;;;4.40;;
4206;SDS011;2117;47.972;7.830;2022-09-06T03:48:14;7.37;;;4.47;;
4206;SDS011;2117;47.972;7.830;2022-09-06T03:50:45;10.43;;;4.93;;
4206;SDS011;2117;47.972;7.830;2022-09-06T03:53:11;8.57;;;4.80;;
4206;SDS011;2117;47.972;7.830;2022-09-06T03:55:37;8.50;;;5.03;;
4206;SDS011;2117;47.972;7.830;2022-09-06T03:58:03;7.93;;;5.03;;
4206;SDS011;2117;47.972;7.830;2022-09-06T04:00:29;7.43;;;5.10;;
4206;SDS011;2117;47.972;7.830;2022-09-06T04:02:57;12.07;;;5.43;;
4206;SDS011;2117;47.972;7.830;2022-09-06T04:05:23;12.23;;;4.90;;
4206;SDS011;2117;47.972;7.830;2022-09-06T04:07:48;14.73;;;5.70;;
4206;SDS011;2117;47.972;7.830;2022-09-06T04:10:14;6.87;;;5.03;;
4206;SDS011;2117;47.972;7.830;2022-09-06T04:12:40;8.00;;;5.30;;
4206;SDS011;2117;47.972;7.830;2022-09-06T04:15:05;9.77;;;4.70;;
4206;SDS011;2117;47.972;7.830;2022-09-06T04:17:31;10.27;;;5.67;;
4206;SDS011;2117;47.972;7.830;2022-09-06T04:19:57;7.17;;;5.10;;
4206;SDS011;2117;47.972;7.830;2022-09-06T04:22:22;6.93;;;4.70;;
4206;SDS011;2117;47.972;7.830;2022-09-06T04:24:48;13.30;;;4.90;;
4206;SDS011;2117;47.972;7.830;2022-09-06T04:27:13;7.27;;;4.20;;
4206;SDS011;2117;47.972;7.830;2022-09-06T04:29:39;7.10;;;4.27;;
4206;SDS011;2117;47.972;7.830;2022-09-06T04:32:05;18.67;;;5.43;;
4206;SDS011;2117;47.972;7.830;2022-09-06T04:34:30;12.50;;;5.83;;
4206;SDS011;2117;47.972;7.830;2022-09-06T04:36:56;12.17;;;5.90;;
4206;SDS011;2117;47.972;7.830;2022-09-06T04:39:22;20.30;;;7.93;;
4206;SDS011;2117;47.972;7.830;2022-09-06T04:41:48;13.20;;;5.20;;
4206;SDS011;2117;47.972;7.830;2022-09-06T04:44:13;12.20;;;5.73;;
4206;SDS011;2117;47.972;7.830;2022-09-06T04:46:40;10.10;;;5.20;;
4206;SDS011;2117;47.972;7.830;2022-09-06T04:49:05;10.50;;;5.07;;
4206;SDS011;2117;47.972;7.830;2022-09-06T04:51:32;16.50;;;5.57;;
4206;SDS011;2117;47.972;7.830;2022-09-06T04:53:58;7.53;;;5.37;;
4206;SDS011;2117;47.972;7.830;2022-09-06T04:56:24;9.67;;;4.87;;
4206;SDS011;2117;47.972;7.830;2022-09-06T04:58:51;9.13;;;5.70;;
4206;SDS011;2117;47.972;7.830;2022-09-06T05:01:18;9.13;;;4.67;;
4206;SDS011;2117;47.972;7.830;2022-09-06T05:03:44;5.67;;;5.13;;
4206;SDS011;2117;47.972;7.830;2022-09-06T05:06:20;8.70;;;5.87;;
4206;SDS011;2117;47.972;7.830;2022-09-06T05:08:48;6.90;;;4.40;;
4206;SDS011;2117;47.972;7.830;2022-09-06T05:11:14;8.20;;;4.83;;
4206;SDS011;2117;47.972;7.830;2022-09-06T05:13:40;7.90;;;3.67;;
4206;SDS011;2117;47.972;7.830;2022-09-06T05:16:06;9.87;;;4.70;;
4206;SDS011;2117;47.972;7.830;2022-09-06T05:18:33;9.13;;;5.40;;
4206;SDS011;2117;47.972;7.830;2022-09-06T05:20:59;5.10;;;3.70;;
4206;SDS011;2117;47.972;7.830;2022-09-06T05:23:25;8.13;;;4.33;;
4206;SDS011;2117;47.972;7.830;2022-09-06T05:25:52;6.40;;;4.27;;
4206;SDS011;2117;47.972;7.830;2022-09-06T05:28:17;17.37;;;5.50;;
4206;SDS011;2117;47.972;7.830;2022-09-06T05:30:43;11.53;;;5.40;;
4206;SDS011;2117;47.972;7.830;2022-09-06T05:33:10;8.00;;;5.33;;
4206;SDS011;2117;47.972;7.830;2022-09-06T05:35:37;7.87;;;4.80;;
4206;SDS011;2117;47.972;7.830;2022-09-06T05:38:03;11.87;;;5.13;;
4206;SDS011;2117;47.972;7.830;2022-09-06T05:40:29;15.47;;;4.67;;
4206;SDS011;2117;47.972;7.830;2022-09-06T05:42:54;7.10;;;4.60;;
4206;SDS011;2117;47.972;7.830;2022-09-06T05:45:20;9.00;;;6.20;;
4206;SDS011;2117;47.972;7.830;2022-09-06T05:47:46;10.63;;;6.27;;
4206;SDS011;2117;47.972;7.830;2022-09-06T05:50:12;10.60;;;5.47;;
4206;SDS011;2117;47.972;7.830;2022-09-06T05:52:37;11.63;;;6.00;;
4206;SDS011;2117;47.972;7.830;2022-09-06T05:55:04;17.20;;;5.77;;
4206;SDS011;2117;47.972;7.830;2022-09-06T05:57:30;9.33;;;6.27;;
4206;SDS011;2117;47.972;7.830;2022-09-06T05:59:56;11.60;;;5.23;;
4206;SDS011;2117;47.972;7.830;2022-09-06T06:02:21;14.20;;;5.80;;
4206;SDS011;2117;47.972;7.830;2022-09-06T06:04:47;5.90;;;4.97;;
4206;SDS011;2117;47.972;7.830;2022-09-06T06:07:13;11.87;;;5.60;;
4206;SDS011;2117;47.972;7.830;2022-09-06T06:09:39;9.40;;;5.70;;
4206;SDS011;2117;47.972;7.830;2022-09-06T06:12:05;11.50;;;6.30;;
4206;SDS011;2117;47.972;7.830;2022-09-06T06:14:31;9.83;;;5.93;;
4206;SDS011;2117;47.972;7.830;2022-09-06T06:16:57;10.03;;;4.70;;
4206;SDS011;2117;47.972;7.830;2022-09-06T06:19:22;11.17;;;6.00;;
4206;SDS011;2117;47.972;7.830;2022-09-06T06:21:48;12.47;;;5.80;;
4206;SDS011;2117;47.972;7.830;2022-09-06T06:24:13;10.60;;;5.50;;
4206;SDS011;2117;47.972;7.830;2022-09-06T06:26:39;8.97;;;5.03;;
4206;SDS011;2117;47.972;7.830;2022-09-06T06:29:05;13.97;;;5.23;;
4206;SDS011;2117;47.972;7.830;2022-09-06T06:31:34;10.87;;;5.50;;
4206;SDS011;2117;47.972;7.830;2022-09-06T06:34:01;12.63;;;6.10;;
4206;SDS011;2117;47.972;7.830;2022-09-06T06:36:28;8.80;;;4.47;;
4206;SDS011;2117;47.972;7.830;2022-09-06T06:38:55;7.20;;;6.00;;
4206;SDS011;2117;47.972;7.830;2022-09-06T06:41:23;7.40;;;5.70;;
4206;SDS011;2117;47.972;7.830;2022-09-06T06:43:54;12.33;;;5.27;;
4206;SDS011;2117;47.972;7.830;2022-09-06T06:46:22;9.60;;;5.47;;
4206;SDS011;2117;47.972;7.830;2022-09-06T06:48:52;6.03;;;4.50;;
4206;SDS011;2117;47.972;7.830;2022-09-06T06:51:19;13.03;;;5.40;;
4206;SDS011;2117;47.972;7.830;2022-09-06T06:53:46;10.47;;;5.77;;
4206;SDS011;2117;47.972;7.830;2022-09-06T06:58:40;16.07;;;7.20;;
4206;SDS011;2117;47.972;7.830;2022-09-06T07:01:06;9.23;;;5.63;;
4206;SDS011;2117;47.972;7.830;2022-09-06T07:03:32;8.53;;;5.97;;
4206;SDS011;2117;47.972;7.830;2022-09-06T07:05:58;10.03;;;5.47;;
4206;SDS011;2117;47.972;7.830;2022-09-06T07:08:23;6.97;;;5.33;;
4206;SDS011;2117;47.972;7.830;2022-09-06T07:10:49;8.30;;;6.27;;
4206;SDS011;2117;47.972;7.830;2022-09-06T07:13:14;12.17;;;6.40;;
4206;SDS011;2117;47.972;7.830;2022-09-06T07:15:40;6.53;;;5.50;;
4206;SDS011;2117;47.972;7.830;2022-09-06T07:18:05;9.10;;;6.60;;
4206;SDS011;2117;47.972;7.830;2022-09-06T07:20:31;12.63;;;7.00;;
4206;SDS011;2117;47.972;7.830;2022-09-06T07:22:57;12.13;;;8.13;;
4206;SDS011;2117;47.972;7.830;2022-09-06T07:25:24;12.43;;;8.37;;
4206;SDS011;2117;47.972;7.830;2022-09-06T07:27:57;11.93;;;7.87;;
4206;SDS011;2117;47.972;7.830;2022-09-06T07:30:31;12.27;;;7.77;;
4206;SDS011;2117;47.972;7.830;2022-09-06T07:33:01;20.13;;;7.90;;
4206;SDS011;2117;47.972;7.830;2022-09-06T07:35:30;14.33;;;7.77;;
4206;SDS011;2117;47.972;7.830;2022-09-06T07:37:57;12.97;;;8.53;;
4206;SDS011;2117;47.972;7.830;2022-09-06T07:40:24;13.10;;;9.00;;
4206;SDS011;2117;47.972;7.830;2022-09-06T07:42:51;13.07;;;9.07;;
4206;SDS011;2117;47.972;7.830;2022-09-06T07:45:17;9.80;;;7.50;;
4206;SDS011;2117;47.972;7.830;2022-09-06T07:47:43;9.27;;;7.27;;
4206;SDS011;2117;47.972;7.830;2022-09-06T07:50:09;15.00;;;8.37;;
4206;SDS011;2117;47.972;7.830;2022-09-06T07:52:35;11.70;;;8.20;;
4206;SDS011;2117;47.972;7.830;2022-09-06T07:55:01;16.33;;;6.73;;
4206;SDS011;2117;47.972;7.830;2022-09-06T07:57:26;11.80;;;8.60;;
4206;SDS011;2117;47.972;7.830;2022-09-06T07:59:52;16.23;;;7.00;;
4206;SDS011;2117;47.972;7.830;2022-09-06T08:02:17;10.10;;;8.97;;
4206;SDS011;2117;47.972;7.830;2022-09-06T08:04:43;14.00;;;7.20;;
4206;SDS011;2117;47.972;7.830;2022-09-06T08:07:09;11.07;;;8.07;;
4206;SDS011;2117;47.972;7.830;2022-09-06T08:09:34;10.37;;;7.07;;
4206;SDS011;2117;47.972;7.830;2022-09-06T08:12:01;19.63;;;7.50;;
4206;SDS011;2117;47.972;7.830;2022-09-06T08:14:31;15.60;;;7.27;;
4206;SDS011;2117;47.972;7.830;2022-09-06T08:16:57;12.47;;;6.70;;
4206;SDS011;2117;47.972;7.830;2022-09-06T08:19:23;15.37;;;6.93;;
4206;SDS011;2117;47.972;7.830;2022-09-06T08:21:49;12.70;;;8.67;;
4206;SDS011;2117;47.972;7.830;2022-09-06T08:24:17;13.80;;;7.60;;
4206;SDS011;2117;47.972;7.830;2022-09-06T08:26:43;12.83;;;7.30;;
4206;SDS011;2117;47.972;7.830;2022-09-06T08:29:09;14.83;;;8.80;;
4206;SDS011;2117;47.972;7.830;2022-09-06T08:31:36;14.90;;;9.50;;
4206;SDS011;2117;47.972;7.830;2022-09-06T08:34:04;11.00;;;8.00;;
4206;SDS011;2117;47.972;7.830;2022-09-06T08:36:30;17.97;;;9.70;;
4206;SDS011;2117;47.972;7.830;2022-09-06T08:39:00;22.03;;;8.20;;
4206;SDS011;2117;47.972;7.830;2022-09-06T08:44:27;11.93;;;8.13;;
4206;SDS011;2117;47.972;7.830;2022-09-06T08:47:19;13.77;;;6.83;;
4206;SDS011;2117;47.972;7.830;2022-09-06T08:49:55;9.63;;;5.90;;
4206;SDS011;2117;47.972;7.830;2022-09-06T09:01:05;16.10;;;7.10;;
4206;SDS011;2117;47.972;7.830;2022-09-06T09:03:36;12.57;;;6.20;;
4206;SDS011;2117;47.972;7.830;2022-09-06T09:06:03;9.50;;;6.20;;
4206;SDS011;2117;47.972;7.830;2022-09-06T09:11:18;8.47;;;5.57;;
4206;SDS011;2117;47.972;7.830;2022-09-06T09:16:10;11.53;;;5.03;;
4206;SDS011;2117;47.972;7.830;2022-09-06T09:18:37;8.93;;;5.50;;
4206;SDS011;2117;47.972;7.830;2022-09-06T09:21:06;13.60;;;6.20;;
4206;SDS011;2117;47.972;7.830;2022-09-06T09:23:33;7.53;;;4.90;;
4206;SDS011;2117;47.972;7.830;2022-09-06T09:26:03;6.23;;;4.97;;
4206;SDS011;2117;47.972;7.830;2022-09-06T09:28:33;11.23;;;6.23;;
4206;SDS011;2117;47.972;7.830;2022-09-06T09:30:59;15.47;;;5.57;;
4206;SDS011;2117;47.972;7.830;2022-09-06T09:33:27;9.83;;;4.50;;
4206;SDS011;2117;47.972;7.830;2022-09-06T09:35:55;8.97;;;4.70;;
4206;SDS011;2117;47.972;7.830;2022-09-06T09:38:24;10.67;;;4.40;;
4206;SDS011;2117;47.972;7.830;2022-09-06T09:40:52;5.13;;;3.33;;
4206;SDS011;2117;47.972;7.830;2022-09-06T09:43:21;8.80;;;3.40;;
4206;SDS011;2117;47.972;7.830;2022-09-06T09:46:06;12.63;;;3.57;;
4206;SDS011;2117;47.972;7.830;2022-09-06T09:48:57;7.27;;;3.40;;
4206;SDS011;2117;47.972;7.830;2022-09-06T09:51:25;5.70;;;2.70;;
4206;SDS011;2117;47.972;7.830;2022-09-06T09:53:57;3.80;;;2.83;;
4206;SDS011;2117;47.972;7.830;2022-09-06T09:56:26;7.57;;;2.70;;
4206;SDS011;2117;47.972;7.830;2022-09-06T10:02:19;6.77;;;2.40;;
4206;SDS011;2117;47.972;7.830;2022-09-06T10:04:48;7.90;;;2.87;;
4206;SDS011;2117;47.972;7.830;2022-09-06T10:09:46;3.53;;;2.50;;
4206;SDS011;2117;47.972;7.830;2022-09-06T10:12:33;6.63;;;2.70;;
4206;SDS011;2117;47.972;7.830;2022-09-06T10:15:00;5.27;;;2.97;;
4206;SDS011;2117;47.972;7.830;2022-09-06T10:17:31;5.73;;;2.50;;
4206;SDS011;2117;47.972;7.830;2022-09-06T10:19:59;9.47;;;2.80;;
4206;SDS011;2117;47.972;7.830;2022-09-06T10:28:06;5.00;;;2.57;;
4206;SDS011;2117;47.972;7.830;2022-09-06T10:30:59;5.00;;;2.60;;
4206;SDS011;2117;47.972;7.830;2022-09-06T10:36:27;8.43;;;2.93;;
4206;SDS011;2117;47.972;7.830;2022-09-06T10:39:00;6.83;;;3.43;;
4206;SDS011;2117;47.972;7.830;2022-09-06T10:41:54;12.43;;;3.40;;
4206;SDS011;2117;47.972;7.830;2022-09-06T10:47:14;15.67;;;5.13;;
4206;SDS011;2117;47.972;7.830;2022-09-06T10:49:40;10.30;;;4.37;;
4206;SDS011;2117;47.972;7.830;2022-09-06T10:52:10;10.67;;;5.03;;
4206;SDS011;2117;47.972;7.830;2022-09-06T10:54:40;8.03;;;4.77;;
4206;SDS011;2117;47.972;7.830;2022-09-06T10:57:14;11.10;;;5.13;;
4206;SDS011;2117;47.972;7.830;2022-09-06T10:59:49;11.57;;;5.47;;
4206;SDS011;2117;47.972;7.830;2022-09-06T11:05:09;9.40;;;4.97;;
4206;SDS011;2117;47.972;7.830;2022-09-06T11:07:41;12.70;;;5.30;;
4206;SDS011;2117;47.972;7.830;2022-09-06T11:10:21;8.83;;;4.80;;
4206;SDS011;2117;47.972;7.830;2022-09-06T11:15:40;8.70;;;4.63;;
4206;SDS011;2117;47.972;7.830;2022-09-06T11:20:39;6.80;;;4.83;;
4206;SDS011;2117;47.972;7.830;2022-09-06T11:26:04;8.43;;;5.50;;
4206;SDS011;2117;47.972;7.830;2022-09-06T11:28:51;11.10;;;5.30;;
4206;SDS011;2117;47.972;7.830;2022-09-06T11:31:29;16.73;;;4.93;;
4206;SDS011;2117;47.972;7.830;2022-09-06T11:34:10;11.03;;;4.50;;
4206;SDS011;2117;47.972;7.830;2022-09-06T11:36:48;12.80;;;4.93;;
4206;SDS011;2117;47.972;7.830;2022-09-06T11:47:43;6.40;;;3.63;;
4206;SDS011;2117;47.972;7.830;2022-09-06T11:55:30;14.57;;;5.07;;
4206;SDS011;2117;47.972;7.830;2022-09-06T11:58:03;6.50;;;4.80;;
4206;SDS011;2117;47.972;7.830;2022-09-06T12:00:36;12.70;;;4.50;;
4206;SDS011;2117;47.972;7.830;2022-09-06T12:03:02;10.97;;;4.70;;
4206;SDS011;2117;47.972;7.830;2022-09-06T12:05:33;11.83;;;5.17;;
4206;SDS011;2117;47.972;7.830;2022-09-06T12:08:37;7.87;;;4.30;;
4206;SDS011;2117;47.972;7.830;2022-09-06T12:11:04;14.80;;;4.70;;
4206;SDS011;2117;47.972;7.830;2022-09-06T12:16:11;10.30;;;3.97;;
4206;SDS011;2117;47.972;7.830;2022-09-06T12:24:03;11.33;;;4.20;;
4206;SDS011;2117;47.972;7.830;2022-09-06T12:29:15;10.57;;;4.80;;
4206;SDS011;2117;47.972;7.830;2022-09-06T12:31:51;7.80;;;4.40;;
4206;SDS011;2117;47.972;7.830;2022-09-06T12:34:23;6.60;;;4.07;;
4206;SDS011;2117;47.972;7.830;2022-09-06T12:36:57;13.17;;;4.33;;
4206;SDS011;2117;47.972;7.830;2022-09-06T12:39:26;10.23;;;5.90;;
4206;SDS011;2117;47.972;7.830;2022-09-06T12:41:55;7.43;;;4.20;;
4206;SDS011;2117;47.972;7.830;2022-09-06T12:44:36;8.50;;;4.00;;
4206;SDS011;2117;47.972;7.830;2022-09-06T12:47:15;9.10;;;4.40;;
4206;SDS011;2117;47.972;7.830;2022-09-06T12:52:45;8.93;;;3.97;;
4206;SDS011;2117;47.972;7.830;2022-09-06T12:55:25;7.40;;;4.50;;
4206;SDS011;2117;47.972;7.830;2022-09-06T12:57:53;7.10;;;4.03;;
4206;SDS011;2117;47.972;7.830;2022-09-06T13:00:22;12.53;;;4.93;;
4206;SDS011;2117;47.972;7.830;2022-09-06T13:05:23;8.77;;;4.43;;
4206;SDS011;2117;47.972;7.830;2022-09-06T13:07:54;8.73;;;4.60;;
4206;SDS011;2117;47.972;7.830;2022-09-06T13:10:23;8.33;;;4.40;;
4206;SDS011;2117;47.972;7.830;2022-09-06T13:12:51;10.03;;;4.50;;
4206;SDS011;2117;47.972;7.830;2022-09-06T13:15:19;8.67;;;3.80;;
4206;SDS011;2117;47.972;7.830;2022-09-06T13:17:49;6.83;;;3.90;;
4206;SDS011;2117;47.972;7.830;2022-09-06T13:20:28;9.80;;;4.60;;
4206;SDS011;2117;47.972;7.830;2022-09-06T13:23:07;8.50;;;4.13;;
4206;SDS011;2117;47.972;7.830;2022-09-06T13:25:45;6.70;;;4.37;;
4206;SDS011;2117;47.972;7.830;2022-09-06T13:28:21;10.20;;;4.57;;
4206;SDS011;2117;47.972;7.830;2022-09-06T13:31:39;8.17;;;3.90;;
4206;SDS011;2117;47.972;7.830;2022-09-06T13:33:56;8.03;;;4.00;;
4206;SDS011;2117;47.972;7.830;2022-09-06T13:36:25;11.43;;;3.90;;
4206;SDS011;2117;47.972;7.830;2022-09-06T13:38:54;7.33;;;4.07;;
4206;SDS011;2117;47.972;7.830;2022-09-06T13:43:58;7.13;;;3.43;;
4206;SDS011;2117;47.972;7.830;2022-09-06T13:46:30;9.07;;;3.50;;
4206;SDS011;2117;47.972;7.830;2022-09-06T13:48:57;7.00;;;4.03;;
4206;SDS011;2117;47.972;7.830;2022-09-06T13:51:22;7.17;;;3.60;;
4206;SDS011;2117;47.972;7.830;2022-09-06T13:53:50;10.40;;;3.60;;
4206;SDS011;2117;47.972;7.830;2022-09-06T13:56:27;6.93;;;4.00;;
4206;SDS011;2117;47.972;7.830;2022-09-06T13:58:52;9.13;;;3.70;;
4206;SDS011;2117;47.972;7.830;2022-09-06T14:01:18;8.03;;;4.10;;
4206;SDS011;2117;47.972;7.830;2022-09-06T14:03:44;8.53;;;4.00;;
4206;SDS011;2117;47.972;7.830;2022-09-06T14:06:09;9.60;;;4.07;;
4206;SDS011;2117;47.972;7.830;2022-09-06T14:08:35;9.47;;;3.87;;
4206;SDS011;2117;47.972;7.830;2022-09-06T14:11:01;14.03;;;4.23;;
4206;SDS011;2117;47.972;7.830;2022-09-06T14:13:27;8.17;;;4.27;;
4206;SDS011;2117;47.972;7.830;2022-09-06T14:15:53;7.67;;;3.80;;
4206;SDS011;2117;47.972;7.830;2022-09-06T14:18:19;9.20;;;3.77;;
4206;SDS011;2117;47.972;7.830;2022-09-06T14:20:50;10.03;;;4.00;;
4206;SDS011;2117;47.972;7.830;2022-09-06T14:23:17;8.20;;;3.30;;
4206;SDS011;2117;47.972;7.830;2022-09-06T14:25:42;6.57;;;4.23;;
4206;SDS011;2117;47.972;7.830;2022-09-06T14:28:08;34.67;;;7.50;;
4206;SDS011;2117;47.972;7.830;2022-09-06T14:30:33;13.60;;;4.77;;
4206;SDS011;2117;47.972;7.830;2022-09-06T14:32:59;8.87;;;3.60;;
4206;SDS011;2117;47.972;7.830;2022-09-06T14:35:25;9.60;;;3.63;;
4206;SDS011;2117;47.972;7.830;2022-09-06T14:37:51;6.20;;;3.50;;
4206;SDS011;2117;47.972;7.830;2022-09-06T14:40:17;7.83;;;4.23;;
4206;SDS011;2117;47.972;7.830;2022-09-06T14:42:43;9.07;;;4.10;;
4206;SDS011;2117;47.972;7.830;2022-09-06T14:45:08;7.83;;;3.87;;
4206;SDS011;2117;47.972;7.830;2022-09-06T14:47:34;10.73;;;4.30;;
4206;SDS011;2117;47.972;7.830;2022-09-06T14:49:59;7.50;;;3.60;;
4206;SDS011;2117;47.972;7.830;2022-09-06T14:52:26;8.57;;;4.30;;
4206;SDS011;2117;47.972;7.830;2022-09-06T14:54:52;8.10;;;3.23;;
4206;SDS011;2117;47.972;7.830;2022-09-06T14:57:17;9.97;;;3.43;;
4206;SDS011;2117;47.972;7.830;2022-09-06T14:59:43;15.90;;;3.57;;
4206;SDS011;2117;47.972;7.830;2022-09-06T15:02:08;6.60;;;3.13;;
4206;SDS011;2117;47.972;7.830;2022-09-06T15:04:34;9.90;;;3.87;;
4206;SDS011;2117;47.972;7.830;2022-09-06T15:06:59;7.40;;;3.30;;
4206;SDS011;2117;47.972;7.830;2022-09-06T15:09:25;7.90;;;3.60;;
4206;SDS011;2117;47.972;7.830;2022-09-06T15:11:51;10.07;;;4.10;;
4206;SDS011;2117;47.972;7.830;2022-09-06T15:14:21;9.93;;;4.17;;
4206;SDS011;2117;47.972;7.830;2022-09-06T15:16:49;8.10;;;3.87;;
4206;SDS011;2117;47.972;7.830;2022-09-06T15:19:16;12.47;;;3.87;;
4206;SDS011;2117;47.972;7.830;2022-09-06T15:21:43;12.97;;;4.53;;
4206;SDS011;2117;47.972;7.830;2022-09-06T15:24:10;10.03;;;3.80;;
4206;SDS011;2117;47.972;7.830;2022-09-06T15:26:37;7.03;;;3.40;;
4206;SDS011;2117;47.972;7.830;2022-09-06T15:29:03;12.50;;;4.17;;
4206;SDS011;2117;47.972;7.830;2022-09-06T15:31:28;7.63;;;3.43;;
4206;SDS011;2117;47.972;7.830;2022-09-06T15:33:58;5.13;;;3.13;;
4206;SDS011;2117;47.972;7.830;2022-09-06T15:36:25;14.23;;;4.10;;
4206;SDS011;2117;47.972;7.830;2022-09-06T15:38:51;13.37;;;4.07;;
4206;SDS011;2117;47.972;7.830;2022-09-06T15:41:19;8.77;;;4.40;;
4206;SDS011;2117;47.972;7.830;2022-09-06T15:43:48;8.73;;;3.90;;
4206;SDS011;2117;47.972;7.830;2022-09-06T15:46:15;10.17;;;3.50;;
4206;SDS011;2117;47.972;7.830;2022-09-06T15:48:48;10.17;;;4.30;;
4206;SDS011;2117;47.972;7.830;2022-09-06T15:51:17;5.80;;;3.30;;
4206;SDS011;2117;47.972;7.830;2022-09-06T15:53:44;7.80;;;3.57;;
4206;SDS011;2117;47.972;7.830;2022-09-06T15:56:12;13.10;;;4.20;;
4206;SDS011;2117;47.972;7.830;2022-09-06T15:58:39;12.73;;;4.13;;
4206;SDS011;2117;47.972;7.830;2022-09-06T16:01:06;7.77;;;3.57;;
4206;SDS011;2117;47.972;7.830;2022-09-06T16:03:43;9.50;;;4.50;;
4206;SDS011;2117;47.972;7.830;2022-09-06T16:06:19;10.07;;;4.00;;
4206;SDS011;2117;47.972;7.830;2022-09-06T16:08:48;12.23;;;4.57;;
4206;SDS011;2117;47.972;7.830;2022-09-06T16:11:15;10.80;;;4.10;;
4206;SDS011;2117;47.972;7.830;2022-09-06T16:13:42;4.70;;;3.33;;
4206;SDS011;2117;47.972;7.830;2022-09-06T16:16:11;13.57;;;4.23;;
4206;SDS011;2117;47.972;7.830;2022-09-06T16:18:39;8.10;;;3.13;;
4206;SDS011;2117;47.972;7.830;2022-09-06T16:21:15;7.83;;;2.33;;
4206;SDS011;2117;47.972;7.830;2022-09-06T16:23:48;3.10;;;2.20;;
4206;SDS011;2117;47.972;7.830;2022-09-06T16:26:16;4.63;;;2.33;;
4206;SDS011;2117;47.972;7.830;2022-09-06T16:28:42;8.93;;;2.33;;
4206;SDS011;2117;47.972;7.830;2022-09-06T16:31:08;3.50;;;1.67;;
4206;SDS011;2117;47.972;7.830;2022-09-06T16:33:34;7.03;;;2.57;;
4206;SDS011;2117;47.972;7.830;2022-09-06T16:36:03;6.23;;;1.80;;
4206;SDS011;2117;47.972;7.830;2022-09-06T16:38:31;4.03;;;1.50;;
4206;SDS011;2117;47.972;7.830;2022-09-06T16:41:06;5.63;;;1.47;;
4206;SDS011;2117;47.972;7.830;2022-09-06T16:43:53;4.17;;;1.70;;
4206;SDS011;2117;47.972;7.830;2022-09-06T16:46:20;2.90;;;1.70;;
4206;SDS011;2117;47.972;7.830;2022-09-06T16:48:57;7.73;;;2.33;;
4206;SDS011;2117;47.972;7.830;2022-09-06T16:51:25;4.90;;;2.13;;
4206;SDS011;2117;47.972;7.830;2022-09-06T16:53:51;3.70;;;1.90;;
4206;SDS011;2117;47.972;7.830;2022-09-06T16:56:19;4.80;;;1.60;;
4206;SDS011;2117;47.972;7.830;2022-09-06T16:58:50;5.83;;;1.80;;
4206;SDS011;2117;47.972;7.830;2022-09-06T17:01:18;4.23;;;2.03;;
4206;SDS011;2117;47.972;7.830;2022-09-06T17:03:44;6.23;;;1.90;;
4206;SDS011;2117;47.972;7.830;2022-09-06T17:06:11;6.13;;;2.63;;
4206;SDS011;2117;47.972;7.830;2022-09-06T17:08:37;4.60;;;1.53;;
4206;SDS011;2117;47.972;7.830;2022-09-06T17:11:04;5.50;;;2.03;;
4206;SDS011;2117;47.972;7.830;2022-09-06T17:13:34;4.57;;;1.90;;
4206;SDS011;2117;47.972;7.830;2022-09-06T17:16:00;12.27;;;2.17;;
4206;SDS011;2117;47.972;7.830;2022-09-06T17:18:45;3.40;;;1.40;;
4206;SDS011;2117;47.972;7.830;2022-09-06T17:21:11;3.93;;;1.40;;
4206;SDS011;2117;47.972;7.830;2022-09-06T17:23:37;3.10;;;2.13;;
4206;SDS011;2117;47.972;7.830;2022-09-06T17:26:03;4.13;;;2.07;;
4206;SDS011;2117;47.972;7.830;2022-09-06T17:28:33;9.50;;;1.90;;
4206;SDS011;2117;47.972;7.830;2022-09-06T17:31:00;5.03;;;1.77;;
4206;SDS011;2117;47.972;7.830;2022-09-06T17:33:28;5.43;;;1.80;;
4206;SDS011;2117;47.972;7.830;2022-09-06T17:35:54;2.83;;;1.43;;
4206;SDS011;2117;47.972;7.830;2022-09-06T17:38:29;5.07;;;1.80;;
4206;SDS011;2117;47.972;7.830;2022-09-06T17:40:56;6.23;;;1.90;;
4206;SDS011;2117;47.972;7.830;2022-09-06T17:43:23;4.50;;;1.90;;
4206;SDS011;2117;47.972;7.830;2022-09-06T17:45:49;11.87;;;2.00;;
4206;SDS011;2117;47.972;7.830;2022-09-06T17:48:15;5.13;;;2.00;;
4206;SDS011;2117;47.972;7.830;2022-09-06T17:50:41;3.03;;;1.50;;
4206;SDS011;2117;47.972;7.830;2022-09-06T17:53:07;7.30;;;2.37;;
4206;SDS011;2117;47.972;7.830;2022-09-06T17:55:37;11.20;;;1.77;;
4206;SDS011;2117;47.972;7.830;2022-09-06T17:58:04;4.50;;;2.60;;
4206;SDS011;2117;47.972;7.830;2022-09-06T18:00:29;10.67;;;1.90;;
4206;SDS011;2117;47.972;7.830;2022-09-06T18:02:55;11.00;;;2.17;;
4206;SDS011;2117;47.972;7.830;2022-09-06T18:05:21;5.47;;;1.77;;
4206;SDS011;2117;47.972;7.830;2022-09-06T18:07:47;4.77;;;1.80;;
4206;SDS011;2117;47.972;7.830;2022-09-06T18:10:13;4.67;;;2.23;;
4206;SDS011;2117;47.972;7.830;2022-09-06T18:12:41;6.60;;;2.40;;
4206;SDS011;2117;47.972;7.830;2022-09-06T18:15:07;5.33;;;2.13;;
4206;SDS011;2117;47.972;7.830;2022-09-06T18:17:33;10.73;;;2.03;;
4206;SDS011;2117;47.972;7.830;2022-09-06T18:19:59;8.53;;;2.73;;
4206;SDS011;2117;47.972;7.830;2022-09-06T18:22:24;12.13;;;2.70;;
4206;SDS011;2117;47.972;7.830;2022-09-06T18:24:51;20.13;;;3.20;;
4206;SDS011;2117;47.972;7.830;2022-09-06T18:27:17;11.73;;;2.50;;
4206;SDS011;2117;47.972;7.830;2022-09-06T18:29:42;9.10;;;2.37;;
4206;SDS011;2117;47.972;7.830;2022-09-06T18:32:08;13.57;;;2.83;;
4206;SDS011;2117;47.972;7.830;2022-09-06T18:34:34;4.77;;;1.93;;
4206;SDS011;2117;47.972;7.830;2022-09-06T18:37:00;13.00;;;2.73;;
4206;SDS011;2117;47.972;7.830;2022-09-06T18:39:25;5.33;;;2.20;;
4206;SDS011;2117;47.972;7.830;2022-09-06T18:41:51;7.70;;;2.80;;
4206;SDS011;2117;47.972;7.830;2022-09-06T18:44:31;7.53;;;2.73;;
4206;SDS011;2117;47.972;7.830;2022-09-06T18:46:58;5.70;;;2.53;;
4206;SDS011;2117;47.972;7.830;2022-09-06T18:49:26;8.97;;;4.10;;
4206;SDS011;2117;47.972;7.830;2022-09-06T18:51:52;5.60;;;2.27;;
4206;SDS011;2117;47.972;7.830;2022-09-06T18:54:18;4.50;;;2.30;;
4206;SDS011;2117;47.972;7.830;2022-09-06T18:56:44;6.63;;;2.13;;
4206;SDS011;2117;47.972;7.830;2022-09-06T18:59:09;12.50;;;2.83;;
4206;SDS011;2117;47.972;7.830;2022-09-06T19:01:36;5.33;;;2.73;;
4206;SDS011;2117;47.972;7.830;2022-09-06T19:04:02;13.10;;;2.10;;
4206;SDS011;2117;47.972;7.830;2022-09-06T19:06:29;10.93;;;2.67;;
4206;SDS011;2117;47.972;7.830;2022-09-06T19:08:59;18.77;;;2.70;;
4206;SDS011;2117;47.972;7.830;2022-09-06T19:11:27;7.40;;;1.87;;
4206;SDS011;2117;47.972;7.830;2022-09-06T19:13:53;6.83;;;2.60;;
4206;SDS011;2117;47.972;7.830;2022-09-06T19:16:19;6.80;;;1.73;;
4206;SDS011;2117;47.972;7.830;2022-09-06T19:18:46;5.17;;;1.53;;
4206;SDS011;2117;47.972;7.830;2022-09-06T19:21:13;8.47;;;2.50;;
4206;SDS011;2117;47.972;7.830;2022-09-06T19:23:42;7.10;;;2.13;;
4206;SDS011;2117;47.972;7.830;2022-09-06T19:26:13;7.07;;;2.43;;
4206;SDS011;2117;47.972;7.830;2022-09-06T19:28:41;5.63;;;2.10;;
4206;SDS011;2117;47.972;7.830;2022-09-06T19:31:13;7.80;;;2.50;;
4206;SDS011;2117;47.972;7.830;2022-09-06T19:33:42;4.80;;;1.90;;
4206;SDS011;2117;47.972;7.830;2022-09-06T19:36:12;9.43;;;2.00;;
4206;SDS011;2117;47.972;7.830;2022-09-06T19:38:38;5.80;;;2.10;;
4206;SDS011;2117;47.972;7.830;2022-09-06T19:41:06;5.50;;;2.10;;
4206;SDS011;2117;47.972;7.830;2022-09-06T19:43:34;4.93;;;2.20;;
4206;SDS011;2117;47.972;7.830;2022-09-06T19:46:04;4.37;;;2.30;;
4206;SDS011;2117;47.972;7.830;2022-09-06T19:48:31;3.27;;;1.53;;
4206;SDS011;2117;47.972;7.830;2022-09-06T19:50:59;11.03;;;3.80;;
4206;SDS011;2117;47.972;7.830;2022-09-06T19:53:29;7.40;;;2.90;;
4206;SDS011;2117;47.972;7.830;2022-09-06T19:55:55;10.20;;;3.03;;
4206;SDS011;2117;47.972;7.830;2022-09-06T19:58:22;9.70;;;2.40;;
4206;SDS011;2117;47.972;7.830;2022-09-06T20:00:50;5.17;;;2.17;;
4206;SDS011;2117;47.972;7.830;2022-09-06T20:03:19;7.93;;;2.50;;
4206;SDS011;2117;47.972;7.830;2022-09-06T20:05:45;7.27;;;2.80;;
4206;SDS011;2117;47.972;7.830;2022-09-06T20:08:11;7.13;;;2.40;;
4206;SDS011;2117;47.972;7.830;2022-09-06T20:10:37;5.43;;;2.00;;